Aeroporto :
LOGIN :

Iscrizione | Disclaimer

   EN    FR    IT 

 










Sommario :    VFR   VFR Marginale   IFR   IFR Intensivo   IFR Molto Intensivo
Visibilità : 
Base nubi : 
>= 8 km
>= 3000ft
5 / 8 km
1000 / 3000 ft
1500m / 5 km
500 / 1000 ft
800 / 1500m
200 / 500 ft
< 800m
< 200 ft
Simboli :   Temporali  Nebbia  Neve Forte  Precipitazioni Forti  Vento > 20 kt
SIGMETs :   Varie  Temporali  Ghiacco  Turbolenza  Onda orograficha  Ceneri Vulcaniche







- Altitudine del aeroporto : 574 ft
- Codice IATA : NDR


GMMW - Nador El Aroui

ULTIMO METAR :
  • 220700Z 27002KT 6000 FEW026 SCT100 15/15 Q1019 NOSIG

METARs OBSOLETI :
  • 220600Z VRB02KT 6000 FEW010 SCT026 16/16 Q1019 NOSIG
  • 220500Z 23002KT 4000 BR BKN010 SCT026 17/17 Q1019 NOSIG

TAF TAF GMMW
Valido dal 22 a 06 ore il 23 a 12 ore UTC


220500Z 2206/2312 VRB02KT 4000 BR BKN010
BECMG 2208/2210 6000 NSW SCT010
Nessun NOTAM noto per questo aeroporto.
3 SIGMETs conosciuti per la FIR Casablanca (GMMM) :
 
Cancellazione del SIGMET T1
GMMM SIGMET T2 VALID 220610/220700 GMMC
GMMM CASABLANCA FIR CNL SIGMET T1 220300/220700=
SIGMET T1  ANNULATO :
Turbolenza severa
GMMM SIGMET T1 VALID 220300/220700 GMMC
GMMM CASABLANCA FIR SEV TURB FCST WI N3429 W00616 - N3025 W01101 - N 3130 W01233 - N3429 W00729 - N3429 W00616 FL260/400 STNR NC=
Temporali affogati
GMMM SIGMET A2 VALID 220330/220730 GMMC
GMMM CASABLANCA FIR EMBD TS FCST WI N3437 W00915 - N3257 W01145 - N3 448 W01117 - N3437 W00915 TOP FL300 STNR NC=



MetMap, La meteo Aeronautica in un colpo d'occhio ! - Copyright ORBIFLY Dicembre 2007 - Disclaimer

ORBIFLY MET'MAP TEAM :

Programmazione e sviluppo : Alexandra Zaïnal
Concezione e sviluppo : Baudouin d'Aumeries
Co-Programmazione e sviluppo : Marc-Olivier Méhu
Supporto tecnico e logistico : Manuel Goepfert
Aiuto per la traduzione : Arnaldo La Scala

Contatto : metmap@orbifly.com




FONTI E CREDITI :

   NOAA